Agency, Iowa
Current Conditions -  °F | °C
As of 7:53 PM on Saturday 25 Oct 2014 (Local Time) from KOTM Reporting Station
Clear Clear  
Wind Chill: 55°   Ceiling: Unl
Heat Index: 55°   Visibility: 10mi
Dew Point: 38°   Wind: 0mph
Humidity: 53%   Direction: NA
Pressure: 30.05"   Gusts: NA
Location:  41°N, 92.31°W
Report Text: KOTM 260053Z AUTO 00000KT 10SM CLR 13/03 A3005 RMK AO2 SLP177 T01280033
Loading
Personal Weather Stations






























Interactive Weather Map
Tropical Storm Tracking
New forecast layout! Learn more

10-Day Weather Forecast

Advertisements
Track Severe Weather on mobile